Time;durP1;ratioP1;P1;durP2;ratioP2;P2;SDS_P1;SDS_P2;PMS_P1;PMS_P2;Temp;Humidity;BMP_temperature;BMP_pressure;BME280_temperature;BME280_humidity;BME280_pressure;Samples;Min_cycle;Max_cycle;Signal;HPM_P1;HPM_P2
2024/04/16 00:02:16;;;;;;;1.17;0.20;;;15.40;69.50;;;;;;4470041;26;20016;-58
2024/04/16 00:04:59;;;;;;;1.05;0.30;;;15.40;69.40;;;;;;4468790;26;20018;-57
2024/04/16 00:07:42;;;;;;;1.02;0.10;;;15.40;69.10;;;;;;4470843;26;20333;-56
2024/04/16 00:10:25;;;;;;;1.50;0.20;;;15.40;70.20;;;;;;4470337;26;20006;-57
2024/04/16 00:13:08;;;;;;;0.68;0.50;;;15.40;69.60;;;;;;4470104;26;20516;-57
2024/04/16 00:16:17;;;;;;;2.85;0.57;;;15.30;70.20;;;;;;4469709;26;20014;-56
2024/04/16 00:18:57;;;;;;;1.77;0.32;;;15.30;69.90;;;;;;4492182;26;20076;-57
2024/04/16 00:21:40;;;;;;;3.00;0.47;;;15.30;69.70;;;;;;4473362;26;20019;-57
2024/04/16 00:24:20;;;;;;;1.85;0.47;;;15.30;69.60;;;;;;4471674;26;20014;-57
2024/04/16 00:27:03;;;;;;;2.50;0.32;;;15.30;69.10;;;;;;4471085;26;20018;-57
2024/04/16 00:29:46;;;;;;;4.03;0.30;;;15.30;69.20;;;;;;4478181;26;20075;-57
2024/04/16 00:32:29;;;;;;;3.42;0.50;;;15.30;68.70;;;;;;4473099;26;20039;-57
2024/04/16 00:35:09;;;;;;;1.10;0.47;;;15.30;69.20;;;;;;4470489;26;20026;-57
2024/04/16 00:37:53;;;;;;;1.67;0.35;;;15.30;69.20;;;;;;4472696;26;20010;-57
2024/04/16 00:40:33;;;;;;;1.40;0.73;;;15.30;69.20;;;;;;4472865;26;20018;-58
2024/04/16 00:43:20;;;;;;;1.58;0.47;;;15.30;69.20;;;;;;4472416;26;20018;-57
2024/04/16 00:46:05;;;;;;;2.72;0.40;;;15.20;69.00;;;;;;4471175;26;20018;-59
2024/04/16 00:48:48;;;;;;;1.80;0.40;;;15.20;69.30;;;;;;4502739;26;20033;-58
2024/04/16 00:51:28;;;;;;;2.42;0.50;;;15.20;69.50;;;;;;4501955;26;20039;-58
2024/04/16 00:54:11;;;;;;;0.68;0.40;;;15.20;69.40;;;;;;4502437;26;20075;-58
2024/04/16 00:56:55;;;;;;;1.45;0.30;;;15.20;69.30;;;;;;4502335;26;20013;-58
2024/04/16 00:59:41;;;;;;;1.48;0.85;;;15.20;70.20;;;;;;4501714;26;20134;-58
2024/04/16 01:02:24;;;;;;;0.40;0.38;;;15.20;69.00;;;;;;4498043;26;20009;-58
2024/04/16 01:05:07;;;;;;;0.32;0.32;;;15.20;69.10;;;;;;4502277;26;20021;-58
2024/04/16 01:07:48;;;;;;;0.60;0.20;;;15.10;69.40;;;;;;4502508;26;20014;-57
2024/04/16 01:10:32;;;;;;;0.90;0.20;;;15.10;69.10;;;;;;4497137;26;20013;-60
2024/04/16 01:13:12;;;;;;;0.38;0.20;;;15.10;68.70;;;;;;4486306;26;20022;-59
2024/04/16 01:15:56;;;;;;;0.95;0.20;;;15.10;68.60;;;;;;4488272;26;20017;-59
2024/04/16 01:18:38;;;;;;;0.38;0.15;;;15.10;68.90;;;;;;4469146;26;20011;-58
2024/04/16 01:21:21;;;;;;;0.30;0.25;;;15.10;69.10;;;;;;4469404;26;20010;-59
2024/04/16 01:24:04;;;;;;;0.10;0.10;;;15.10;68.80;;;;;;4494721;26;20013;-57
2024/04/16 01:26:48;;;;;;;0.52;0.25;;;15.10;68.10;;;;;;4500190;26;20366;-58
2024/04/16 01:29:28;;;;;;;0.60;0.30;;;15.10;67.80;;;;;;4501366;26;20042;-58
2024/04/16 01:32:11;;;;;;;0.38;0.25;;;15.10;68.50;;;;;;4501093;26;20009;-59
2024/04/16 01:34:51;;;;;;;0.57;0.43;;;15.00;68.60;;;;;;4497817;26;20076;-59
2024/04/16 01:37:34;;;;;;;1.48;0.38;;;15.00;69.30;;;;;;4485396;26;20010;-58
2024/04/16 01:40:17;;;;;;;0.30;0.30;;;15.10;69.30;;;;;;4471810;26;20018;-59
2024/04/16 01:43:00;;;;;;;2.80;0.22;;;15.10;68.50;;;;;;4471893;26;20393;-59
2024/04/16 01:45:40;;;;;;;0.28;0.20;;;15.10;68.10;;;;;;4470642;26;20375;-60
2024/04/16 01:48:23;;;;;;;0.20;0.20;;;15.10;69.00;;;;;;4496533;26;20502;-60
2024/04/16 01:51:03;;;;;;;2.25;0.32;;;15.10;69.90;;;;;;4485298;26;20445;-60
2024/04/16 01:53:46;;;;;;;1.25;0.47;;;15.10;69.90;;;;;;4470519;26;20045;-60
2024/04/16 01:56:30;;;;;;;0.85;0.28;;;15.20;70.10;;;;;;4492170;26;20013;-60
2024/04/16 01:59:12;;;;;;;0.57;0.30;;;15.20;69.60;;;;;;4501205;26;20369;-59
2024/04/16 02:01:53;;;;;;;0.50;0.25;;;15.20;69.20;;;;;;4499403;26;20092;-59
2024/04/16 02:04:36;;;;;;;0.40;0.37;;;15.20;68.90;;;;;;4500886;26;20329;-59
2024/04/16 02:07:16;;;;;;;1.02;0.30;;;15.20;69.50;;;;;;4505436;26;20323;-59
2024/04/16 02:09:59;;;;;;;0.33;0.20;;;15.30;70.40;;;;;;4471620;26;20026;-59
2024/04/16 02:12:42;;;;;;;1.05;0.25;;;15.30;70.70;;;;;;4494909;26;20252;-59
2024/04/16 02:15:25;;;;;;;0.32;0.20;;;15.40;70.40;;;;;;4500446;26;20022;-59
2024/04/16 02:18:05;;;;;;;0.63;0.43;;;15.50;70.00;;;;;;4501305;26;20013;-59
2024/04/16 02:20:48;;;;;;;1.10;0.22;;;15.50;69.80;;;;;;4500506;26;20518;-59
2024/04/16 02:23:28;;;;;;;1.73;0.60;;;15.50;69.70;;;;;;4493166;26;20075;-60
2024/04/16 02:26:11;;;;;;;1.58;0.75;;;15.50;69.70;;;;;;4489564;26;20053;-59
2024/04/16 02:28:54;;;;;;;1.65;0.30;;;15.60;69.90;;;;;;4470690;26;20039;-59
2024/04/16 02:31:37;;;;;;;0.25;0.25;;;15.60;69.90;;;;;;4469272;26;20449;-60
2024/04/16 02:34:18;;;;;;;0.30;0.13;;;15.60;69.80;;;;;;4471232;26;20516;-59
2024/04/16 02:37:01;;;;;;;3.33;0.60;;;15.60;69.60;;;;;;4469678;26;20072;-60
2024/04/16 02:39:42;;;;;;;0.70;0.30;;;15.60;69.50;;;;;;4472524;26;20030;-59
2024/04/16 02:42:25;;;;;;;2.85;0.40;;;15.70;69.90;;;;;;4471081;26;20014;-60
2024/04/16 02:45:08;;;;;;;0.95;0.28;;;15.70;69.90;;;;;;4471410;26;20133;-60
2024/04/16 02:47:51;;;;;;;1.52;0.35;;;15.80;69.80;;;;;;4489593;26;20013;-60
2024/04/16 02:50:31;;;;;;;1.00;0.30;;;15.80;69.20;;;;;;4500706;26;20075;-60
2024/04/16 02:53:15;;;;;;;0.57;0.50;;;15.90;70.10;;;;;;4500497;26;20738;-60
2024/04/16 02:55:55;;;;;;;0.35;0.35;;;15.90;69.20;;;;;;4477886;26;20512;-60
2024/04/16 02:58:38;;;;;;;2.00;0.50;;;15.90;69.10;;;;;;4476029;26;20017;-59
2024/04/16 03:01:21;;;;;;;2.65;0.73;;;15.90;69.30;;;;;;4500455;26;20399;-60
2024/04/16 03:04:04;;;;;;;1.00;0.40;;;15.90;69.50;;;;;;4500514;26;20014;-60
2024/04/16 03:06:44;;;;;;;3.22;0.60;;;15.90;69.20;;;;;;4498208;26;20018;-60
2024/04/16 03:09:27;;;;;;;0.40;0.28;;;16.00;69.00;;;;;;4500909;26;20050;-60
2024/04/16 03:12:08;;;;;;;1.40;0.50;;;16.00;68.70;;;;;;4479889;26;20504;-59
2024/04/16 03:14:56;;;;;;;0.65;0.50;;;16.00;68.90;;;;;;4471118;26;20014;-59
2024/04/16 03:17:39;;;;;;;2.15;0.50;;;16.00;69.00;;;;;;4470683;26;20341;-60
2024/04/16 03:20:22;;;;;;;3.90;0.80;;;16.00;69.20;;;;;;4491034;26;20030;-60
2024/04/16 03:23:02;;;;;;;1.63;0.90;;;16.00;69.00;;;;;;4500709;26;20432;-61
2024/04/16 03:25:46;;;;;;;1.13;0.70;;;16.00;68.90;;;;;;4498841;26;20041;-60
2024/04/16 03:28:26;;;;;;;0.60;0.40;;;16.10;68.90;;;;;;4474662;26;20018;-60
2024/04/16 03:31:09;;;;;;;1.10;0.75;;;16.10;68.80;;;;;;4470636;26;20014;-58
2024/04/16 03:33:52;;;;;;;3.53;0.50;;;16.10;68.80;;;;;;4469250;26;20014;-60
2024/04/16 03:36:35;;;;;;;1.30;0.45;;;16.10;68.50;;;;;;4471095;26;20050;-60
2024/04/16 03:39:18;;;;;;;1.83;0.70;;;16.10;68.70;;;;;;4470655;26;20077;-61
2024/04/16 03:42:01;;;;;;;2.90;0.70;;;16.10;69.00;;;;;;4448768;26;20014;-60
2024/04/16 03:44:44;;;;;;;1.15;0.77;;;16.10;69.00;;;;;;4482570;26;20449;-58
2024/04/16 03:47:24;;;;;;;3.88;0.80;;;16.10;68.90;;;;;;4490889;26;20013;-59
2024/04/16 03:50:10;;;;;;;4.10;1.27;;;16.10;69.60;;;;;;4475626;26;20080;-59
2024/04/16 03:52:51;;;;;;;1.77;0.43;;;16.10;68.80;;;;;;4468828;26;20040;-59
2024/04/16 03:55:33;;;;;;;1.65;0.57;;;16.00;69.00;;;;;;4487507;26;20464;-59
2024/04/16 03:58:14;;;;;;;2.50;0.55;;;16.10;69.10;;;;;;4498965;26;20075;-59
2024/04/16 04:01:03;;;;;;;3.33;0.90;;;16.10;68.90;;;;;;4473322;26;20345;-59
2024/04/16 04:03:44;;;;;;;3.08;1.00;;;16.10;68.70;;;;;;4470064;26;20014;-59
2024/04/16 04:06:29;;;;;;;3.22;1.30;;;16.10;68.90;;;;;;4469016;26;20508;-59
2024/04/16 04:09:10;;;;;;;1.75;0.70;;;16.10;68.90;;;;;;4470647;26;20508;-59
2024/04/16 04:11:53;;;;;;;2.88;0.70;;;16.20;68.90;;;;;;4491138;26;20009;-58
2024/04/16 04:14:33;;;;;;;3.25;1.00;;;16.20;68.70;;;;;;4498646;26;20018;-59
2024/04/16 04:17:16;;;;;;;3.65;0.80;;;16.20;68.70;;;;;;4496726;26;20140;-58
2024/04/16 04:19:57;;;;;;;1.92;0.50;;;16.20;68.50;;;;;;4499538;26;20018;-60
2024/04/16 04:22:43;;;;;;;3.33;0.52;;;16.20;68.50;;;;;;4499382;26;20017;-58
2024/04/16 04:25:23;;;;;;;3.10;0.77;;;16.20;68.60;;;;;;4498181;26;20018;-58
2024/04/16 04:28:06;;;;;;;2.13;0.65;;;16.10;68.60;;;;;;4500050;26;20022;-57
2024/04/16 04:30:48;;;;;;;1.45;0.40;;;16.10;68.70;;;;;;4499440;26;20014;-60
2024/04/16 04:33:31;;;;;;;3.53;0.60;;;16.00;68.80;;;;;;4496356;26;20014;-58
2024/04/16 04:36:12;;;;;;;1.67;0.60;;;16.00;69.10;;;;;;4499048;26;20065;-58
2024/04/16 04:38:57;;;;;;;0.50;0.40;;;15.90;69.30;;;;;;4498496;26;20021;-59
2024/04/16 04:41:37;;;;;;;2.28;0.43;;;15.90;69.70;;;;;;4496614;26;20457;-58
2024/04/16 04:44:20;;;;;;;0.60;0.50;;;16.00;69.90;;;;;;4499186;26;20431;-59
2024/04/16 04:47:01;;;;;;;1.08;0.40;;;16.00;69.50;;;;;;4495454;26;20440;-59
2024/04/16 04:49:44;;;;;;;1.80;0.50;;;16.00;69.30;;;;;;4465709;26;20007;-58
2024/04/16 04:52:27;;;;;;;0.82;0.32;;;16.00;69.30;;;;;;4470441;26;20077;-58
2024/04/16 04:55:10;;;;;;;1.63;0.43;;;16.00;69.30;;;;;;4469381;26;20017;-59
2024/04/16 04:57:56;;;;;;;0.93;0.50;;;16.00;69.30;;;;;;4488890;26;20014;-59
2024/04/16 05:00:37;;;;;;;0.68;0.30;;;16.00;69.40;;;;;;4498304;26;20018;-62
2024/04/16 05:03:20;;;;;;;1.65;0.30;;;16.00;69.50;;;;;;4498569;26;20014;-59
2024/04/16 05:06:01;;;;;;;1.23;0.40;;;16.00;69.80;;;;;;4498136;26;20333;-58
2024/04/16 05:08:44;;;;;;;2.80;0.70;;;16.00;69.60;;;;;;4498850;26;20325;-59
2024/04/16 05:11:27;;;;;;;3.17;0.85;;;16.10;69.50;;;;;;4502629;26;20018;-58
2024/04/16 05:14:11;;;;;;;0.82;0.60;;;16.20;69.30;;;;;;4502293;26;20022;-58
2024/04/16 05:16:51;;;;;;;3.45;0.65;;;16.20;69.30;;;;;;4501072;26;20022;-55
2024/04/16 05:19:35;;;;;;;1.17;0.50;;;16.20;69.00;;;;;;4498302;26;20079;-59
2024/04/16 05:22:15;;;;;;;2.35;0.55;;;16.20;69.30;;;;;;4461075;26;20022;-59
2024/04/16 05:24:58;;;;;;;3.03;0.60;;;16.20;69.20;;;;;;4468880;26;20029;-59
2024/04/16 05:27:44;;;;;;;1.17;0.60;;;16.20;69.30;;;;;;4468079;26;20040;-58
2024/04/16 05:30:27;;;;;;;1.17;0.52;;;16.20;69.40;;;;;;4487957;26;20013;-58
2024/04/16 05:33:07;;;;;;;0.95;0.57;;;16.20;69.30;;;;;;4479826;26;20428;-59
2024/04/16 05:35:50;;;;;;;1.05;0.60;;;16.10;69.40;;;;;;4490785;26;20077;-59
2024/04/16 05:38:33;;;;;;;2.30;0.75;;;16.10;70.40;;;;;;4498044;26;20017;-59
2024/04/16 05:41:15;;;;;;;1.45;0.65;;;16.10;69.90;;;;;;4498162;26;20507;-60
2024/04/16 05:44:00;;;;;;;1.58;0.80;;;16.10;70.80;;;;;;4498303;26;20080;-60
2024/04/16 05:46:43;;;;;;;1.80;0.55;;;16.10;69.90;;;;;;4470542;26;20014;-60
2024/04/16 05:49:24;;;;;;;1.00;0.80;;;16.10;69.90;;;;;;4470973;26;20397;-60
2024/04/16 05:52:07;;;;;;;1.90;0.65;;;16.10;69.70;;;;;;4469972;26;20055;-60
2024/04/16 05:54:48;;;;;;;1.85;0.60;;;16.10;69.80;;;;;;4499981;26;20071;-61
2024/04/16 05:57:30;;;;;;;1.10;0.80;;;16.00;69.80;;;;;;4488429;26;20076;-60
2024/04/16 06:00:14;;;;;;;0.90;0.65;;;16.00;70.20;;;;;;4471108;26;20076;-59
2024/04/16 06:02:57;;;;;;;0.82;0.70;;;15.90;70.30;;;;;;4469611;26;20017;-61
2024/04/16 06:05:38;;;;;;;1.75;0.63;;;16.00;70.50;;;;;;4470501;26;20076;-61
2024/04/16 06:08:20;;;;;;;1.98;0.60;;;16.00;70.50;;;;;;4466734;26;20015;-58
2024/04/16 06:11:01;;;;;;;2.08;0.57;;;16.00;70.40;;;;;;4469141;26;20080;-61
2024/04/16 06:13:44;;;;;;;1.63;0.52;;;16.10;70.00;;;;;;4464663;26;20077;-61
2024/04/16 06:16:29;;;;;;;1.73;0.47;;;16.10;69.60;;;;;;4468713;26;20090;-57
2024/04/16 06:19:12;;;;;;;1.02;0.40;;;16.10;69.40;;;;;;4471565;26;20089;-57
2024/04/16 06:21:52;;;;;;;0.57;0.52;;;16.10;69.30;;;;;;4470977;26;20076;-58
2024/04/16 06:24:35;;;;;;;1.13;0.52;;;16.10;69.40;;;;;;4476321;26;20022;-56
2024/04/16 06:27:18;;;;;;;0.82;0.63;;;16.10;69.40;;;;;;4496546;26;20017;-57
2024/04/16 06:29:59;;;;;;;1.17;0.45;;;16.20;69.50;;;;;;4500309;26;20072;-56
2024/04/16 06:32:44;;;;;;;0.80;0.40;;;16.20;69.40;;;;;;4493998;26;20073;-57
2024/04/16 06:35:25;;;;;;;0.32;0.30;;;16.20;69.40;;;;;;4470875;26;20014;-58
2024/04/16 06:38:09;;;;;;;1.55;0.63;;;16.20;69.40;;;;;;4471917;26;20453;-55
2024/04/16 06:40:49;;;;;;;1.15;0.60;;;16.20;69.20;;;;;;4472071;26;20503;-57
2024/04/16 06:43:32;;;;;;;0.43;0.43;;;16.20;69.20;;;;;;4479502;26;20171;-57
2024/04/16 06:46:12;;;;;;;1.00;0.40;;;16.20;69.10;;;;;;4471026;26;20101;-56
2024/04/16 06:48:58;;;;;;;0.30;0.30;;;16.20;69.20;;;;;;4471515;26;20058;-55
2024/04/16 06:51:43;;;;;;;0.40;0.40;;;16.20;69.10;;;;;;4467000;26;20106;-60
2024/04/16 06:54:26;;;;;;;0.30;0.30;;;16.20;69.20;;;;;;4469510;26;20047;-61
2024/04/16 06:57:06;;;;;;;0.30;0.30;;;16.20;69.10;;;;;;4494823;26;20042;-61
2024/04/16 06:59:49;;;;;;;0.35;0.35;;;16.20;69.00;;;;;;4500171;26;20075;-60
2024/04/16 07:02:32;;;;;;;0.30;0.30;;;16.20;69.10;;;;;;4498655;26;20021;-61
2024/04/16 07:05:15;;;;;;;0.20;0.20;;;16.20;69.10;;;;;;4499230;26;20092;-42
2024/04/16 07:07:58;;;;;;;0.75;0.35;;;16.20;69.00;;;;;;4486821;26;20013;-50
2024/04/16 07:10:38;;;;;;;0.20;0.20;;;16.30;69.80;;;;;;4480857;26;20046;-61
2024/04/16 07:13:22;;;;;;;0.68;0.40;;;16.30;69.60;;;;;;4480837;26;20010;-59
2024/04/16 07:16:03;;;;;;;0.50;0.50;;;16.30;69.70;;;;;;4494276;26;20043;-59
2024/04/16 07:18:46;;;;;;;1.33;0.15;;;16.20;69.70;;;;;;4498829;26;20042;-59
2024/04/16 07:21:29;;;;;;;0.22;0.22;;;16.20;70.00;;;;;;4489325;26;20345;-62
2024/04/16 07:24:12;;;;;;;0.60;0.30;;;16.20;69.80;;;;;;4500826;26;20013;-64
2024/04/16 07:26:52;;;;;;;0.10;0.10;;;16.20;70.00;;;;;;4498961;26;20543;-65
2024/04/16 07:29:36;;;;;;;0.32;0.20;;;16.20;70.20;;;;;;4497871;26;20039;-58
2024/04/16 07:32:17;;;;;;;0.28;0.20;;;16.20;70.00;;;;;;4483386;26;20053;-57
2024/04/16 07:34:59;;;;;;;0.25;0.25;;;16.30;70.00;;;;;;4462359;26;20073;-60
2024/04/16 07:37:43;;;;;;;0.30;0.30;;;16.30;70.00;;;;;;4470102;26;20598;-59
2024/04/16 07:40:26;;;;;;;0.15;0.15;;;16.40;70.10;;;;;;4469747;26;20072;-59
2024/04/16 07:43:06;;;;;;;0.32;0.20;;;16.40;70.10;;;;;;4499675;26;20046;-59
2024/04/16 07:45:49;;;;;;;0.10;0.10;;;16.40;70.00;;;;;;4494378;26;20071;-63
2024/04/16 07:48:30;;;;;;;0.28;0.20;;;16.40;69.80;;;;;;4469871;26;20022;-60
2024/04/16 07:51:13;;;;;;;0.30;0.30;;;16.40;69.80;;;;;;4468646;26;20047;-63
2024/04/16 07:53:56;;;;;;;0.63;0.20;;;16.40;69.70;;;;;;4486801;26;20019;-63
2024/04/16 07:56:38;;;;;;;0.25;0.20;;;16.40;69.30;;;;;;4476431;26;20507;-64
2024/04/16 07:59:19;;;;;;;0.30;0.30;;;16.30;69.30;;;;;;4498157;26;20018;-64
2024/04/16 08:02:02;;;;;;;0.15;0.15;;;16.40;69.50;;;;;;4499461;26;20075;-64
2024/04/16 08:04:43;;;;;;;0.93;0.30;;;16.30;69.60;;;;;;4494255;26;20013;-58
2024/04/16 08:07:26;;;;;;;0.28;0.28;;;16.20;69.70;;;;;;4499444;26;20018;-58
2024/04/16 08:10:09;;;;;;;0.20;0.20;;;16.20;69.40;;;;;;4469594;26;20014;-59
2024/04/16 08:12:52;;;;;;;1.38;0.40;;;16.10;69.50;;;;;;4493213;26;20356;-58
2024/04/16 08:15:33;;;;;;;0.85;0.25;;;16.10;70.00;;;;;;4498506;26;20017;-59
2024/04/16 08:18:16;;;;;;;0.20;0.20;;;16.00;69.80;;;;;;4498848;26;20013;-59
2024/04/16 08:20:58;;;;;;;0.30;0.30;;;16.00;70.00;;;;;;4478171;26;20010;-62
2024/04/16 08:23:42;;;;;;;0.20;0.20;;;16.00;70.00;;;;;;4469316;26;20014;-60
2024/04/16 08:26:24;;;;;;;1.02;0.28;;;15.90;70.10;;;;;;4467995;26;20471;-59
2024/04/16 08:29:07;;;;;;;0.20;0.20;;;15.90;70.30;;;;;;4481420;26;20075;-58
2024/04/16 08:31:47;;;;;;;0.30;0.30;;;15.90;70.40;;;;;;4492860;26;20041;-57
2024/04/16 08:34:30;;;;;;;0.88;0.20;;;15.90;70.10;;;;;;4483914;26;20396;-58
2024/04/16 08:37:10;;;;;;;0.50;0.50;;;15.90;70.20;;;;;;4468543;26;20014;-58
2024/04/16 08:39:54;;;;;;;0.73;0.50;;;15.90;70.30;;;;;;4471866;26;20445;-58
2024/04/16 08:42:37;;;;;;;0.30;0.30;;;15.80;69.30;;;;;;4472112;26;20084;-54
2024/04/16 08:45:23;;;;;;;0.30;0.20;;;15.80;67.40;;;;;;4498418;26;20017;-53
2024/04/16 08:48:05;;;;;;;0.30;0.30;;;15.80;67.60;;;;;;4475531;26;20511;-50
2024/04/16 08:50:49;;;;;;;0.30;0.30;;;15.80;69.20;;;;;;4502651;26;20039;-52
2024/04/16 08:53:32;;;;;;;0.30;0.30;;;15.80;69.20;;;;;;4500874;26;20759;-48
2024/04/16 08:56:15;;;;;;;1.60;0.50;;;15.80;69.60;;;;;;4491820;26;20083;-51
2024/04/16 08:58:58;;;;;;;0.55;0.40;;;15.80;70.20;;;;;;4495842;26;20014;-52
2024/04/16 09:01:42;;;;;;;1.48;0.30;;;15.90;70.00;;;;;;4481094;26;20017;-49
2024/04/16 09:04:24;;;;;;;0.63;0.40;;;15.90;69.10;;;;;;4498095;26;20010;-49
2024/04/16 09:07:07;;;;;;;3.10;0.47;;;15.90;69.20;;;;;;4498726;26;20043;-51
2024/04/16 09:09:47;;;;;;;0.30;0.30;;;16.00;70.00;;;;;;4492440;26;20480;-50
2024/04/16 09:12:30;;;;;;;1.08;0.75;;;16.00;69.90;;;;;;4493389;26;20009;-50
2024/04/16 09:15:17;;;;;;;0.40;0.40;;;16.10;70.50;;;;;;4471395;26;20036;-52
2024/04/16 09:17:57;;;;;;;0.30;0.30;;;16.00;70.00;;;;;;4478383;26;20021;-52
2024/04/16 09:20:40;;;;;;;0.50;0.50;;;16.10;69.90;;;;;;4497359;26;20010;-47
2024/04/16 09:23:21;;;;;;;0.40;0.40;;;16.00;70.50;;;;;;4498324;26;20065;-49
2024/04/16 09:26:04;;;;;;;0.50;0.50;;;16.00;70.70;;;;;;4494349;26;20017;-49
2024/04/16 09:28:47;;;;;;;0.47;0.47;;;16.00;70.70;;;;;;4496842;26;20334;-48
2024/04/16 09:31:32;;;;;;;1.30;0.60;;;16.00;69.80;;;;;;4496256;26;20350;-48
2024/04/16 09:34:13;;;;;;;0.47;0.40;;;16.00;69.90;;;;;;4494981;26;20018;-48
2024/04/16 09:36:59;;;;;;;1.45;0.63;;;15.90;69.50;;;;;;4496156;26;20013;-49
2024/04/16 09:39:42;;;;;;;0.73;0.73;;;15.90;70.10;;;;;;4498063;26;20017;-49
2024/04/16 09:42:26;;;;;;;0.50;0.50;;;15.90;70.10;;;;;;4497053;26;20019;-51
2024/04/16 09:45:08;;;;;;;0.57;0.57;;;15.90;70.50;;;;;;4498534;26;20022;-48
2024/04/16 09:47:54;;;;;;;0.95;0.65;;;15.80;70.40;;;;;;4496195;26;20018;-47
2024/04/16 09:50:36;;;;;;;0.88;0.70;;;15.80;69.20;;;;;;4496052;26;20460;-46
2024/04/16 09:53:28;;;;;;;0.80;0.80;;;15.80;69.40;;;;;;4496881;26;20194;-50
2024/04/16 09:56:09;;;;;;;0.95;0.80;;;15.80;70.20;;;;;;4497484;26;20014;-47
2024/04/16 09:58:54;;;;;;;2.90;0.90;;;15.80;69.10;;;;;;4478502;26;20018;-49
2024/04/16 10:01:36;;;;;;;2.28;0.88;;;15.80;68.40;;;;;;4497309;26;20598;-47
2024/04/16 10:04:23;;;;;;;1.05;1.00;;;15.70;68.40;;;;;;4495323;26;20021;-47
2024/04/16 10:07:04;;;;;;;0.90;0.80;;;15.70;67.50;;;;;;4496811;26;20014;-51
2024/04/16 10:09:47;;;;;;;1.58;0.65;;;15.70;67.00;;;;;;4497692;26;20014;-48
2024/04/16 10:12:28;;;;;;;2.30;1.25;;;15.70;67.80;;;;;;4492856;26;20053;-51
2024/04/16 10:15:11;;;;;;;0.98;0.90;;;15.60;69.60;;;;;;4515535;26;20018;-50
2024/04/16 10:17:53;;;;;;;0.68;0.60;;;15.60;70.10;;;;;;4494826;26;20020;-51
2024/04/16 10:20:49;;;;;;;1.48;0.60;;;15.60;69.40;;;;;;4494253;26;20361;-47
2024/04/16 10:23:29;;;;;;;1.33;0.60;;;15.60;68.90;;;;;;4492663;26;20451;-48
2024/04/16 10:26:17;;;;;;;0.68;0.57;;;15.60;70.10;;;;;;4492869;26;20334;-47
2024/04/16 10:28:59;;;;;;;0.40;0.40;;;15.60;69.40;;;;;;4496435;26;20005;-46
2024/04/16 10:31:44;;;;;;;;;;;15.60;69.00;;;;;;4497842;26;20013;-50
2024/04/16 10:34:26;;;;;;;0.70;0.70;;;15.60;68.00;;;;;;4496855;26;19993;-49
2024/04/16 10:37:11;;;;;;;0.88;0.80;;;15.60;68.50;;;;;;4497198;26;20060;-49
2024/04/16 10:39:56;;;;;;;2.78;1.15;;;15.60;68.60;;;;;;4490703;26;20079;-46
2024/04/16 10:42:40;;;;;;;0.70;0.63;;;15.50;68.10;;;;;;4497972;26;20064;-46
2024/04/16 10:45:22;;;;;;;0.68;0.68;;;15.50;69.10;;;;;;4495301;26;20009;-48
2024/04/16 10:48:06;;;;;;;2.08;0.60;;;15.50;68.50;;;;;;4496257;26;20075;-49
2024/04/16 10:50:47;;;;;;;0.57;0.43;;;15.50;68.80;;;;;;4493654;26;20043;-48
2024/04/16 10:53:33;;;;;;;0.40;0.40;;;15.50;68.10;;;;;;4496490;26;20559;-50
2024/04/16 10:56:14;;;;;;;2.42;0.73;;;15.50;68.10;;;;;;4496894;26;20017;-46
2024/04/16 10:58:57;;;;;;;0.57;0.55;;;15.50;69.80;;;;;;4495688;26;20088;-52
2024/04/16 11:01:38;;;;;;;0.45;0.45;;;15.50;69.20;;;;;;4496358;26;20017;-47
2024/04/16 11:04:22;;;;;;;0.57;0.57;;;15.50;68.50;;;;;;4487380;26;20013;-48
2024/04/16 11:07:04;;;;;;;0.47;0.47;;;15.50;66.90;;;;;;4504452;26;20046;-48
2024/04/16 11:09:50;;;;;;;0.40;0.40;;;15.50;67.00;;;;;;4497324;26;20071;-48
2024/04/16 11:12:31;;;;;;;0.40;0.40;;;15.40;67.40;;;;;;4497454;26;20034;-49
2024/04/16 11:15:14;;;;;;;0.40;0.40;;;15.40;68.20;;;;;;4496169;26;20020;-46
2024/04/16 11:17:56;;;;;;;0.50;0.50;;;15.40;68.30;;;;;;4495929;26;20098;-49
2024/04/16 11:20:41;;;;;;;0.43;0.43;;;15.40;68.00;;;;;;4496695;26;20838;-46
2024/04/16 11:23:21;;;;;;;0.43;0.30;;;15.50;68.40;;;;;;4494523;26;20029;-46
2024/04/16 11:26:06;;;;;;;0.50;0.50;;;15.50;68.70;;;;;;4497353;26;20009;-47
2024/04/16 11:28:49;;;;;;;0.68;0.47;;;15.50;68.30;;;;;;4496698;26;20017;-46
2024/04/16 11:31:32;;;;;;;1.02;0.60;;;15.50;67.90;;;;;;4497151;26;20483;-47
2024/04/16 11:34:12;;;;;;;0.40;0.40;;;15.50;67.00;;;;;;4496195;26;20080;-47
2024/04/16 11:36:58;;;;;;;0.30;0.30;;;15.50;67.10;;;;;;4494326;26;20100;-49
2024/04/16 11:39:38;;;;;;;0.32;0.32;;;15.50;66.10;;;;;;4495304;26;20072;-49
2024/04/16 11:42:24;;;;;;;0.10;0.10;;;15.50;65.70;;;;;;4496751;26;20052;-45
2024/04/16 11:45:05;;;;;;;0.80;0.20;;;15.50;64.60;;;;;;4495405;26;20013;-47
2024/04/16 11:47:48;;;;;;;0.20;0.20;;;15.50;65.00;;;;;;4491291;26;20361;-48
2024/04/16 11:50:29;;;;;;;0.28;0.28;;;15.50;64.80;;;;;;4493154;26;20017;-47
2024/04/16 11:53:12;;;;;;;0.50;0.50;;;15.40;64.70;;;;;;4493602;26;20012;-46
2024/04/16 11:55:52;;;;;;;0.50;0.30;;;15.40;64.60;;;;;;4496056;26;20437;-45
2024/04/16 11:58:38;;;;;;;0.20;0.20;;;15.40;64.90;;;;;;4495797;26;20009;-49
2024/04/16 12:01:18;;;;;;;0.75;0.38;;;15.40;64.90;;;;;;4495051;26;20022;-46
2024/04/16 12:04:01;;;;;;;0.47;0.20;;;15.40;65.60;;;;;;4495280;26;20014;-49
2024/04/16 12:06:41;;;;;;;1.58;0.20;;;15.40;66.10;;;;;;4496339;26;20075;-46
2024/04/16 12:09:24;;;;;;;0.98;0.30;;;15.40;66.20;;;;;;4494600;26;20017;-50
2024/04/16 12:12:07;;;;;;;0.30;0.30;;;15.30;66.50;;;;;;4494896;26;20013;-47
2024/04/16 12:14:53;;;;;;;0.40;0.40;;;15.30;66.20;;;;;;4498281;26;20013;-51
2024/04/16 12:17:33;;;;;;;0.85;0.60;;;15.40;66.10;;;;;;4492203;26;20446;-49
2024/04/16 12:20:16;;;;;;;0.60;0.60;;;15.30;66.40;;;;;;4483788;26;20346;-47
2024/04/16 12:22:57;;;;;;;1.05;0.88;;;15.40;67.00;;;;;;4498868;26;20071;-47
2024/04/16 12:25:40;;;;;;;0.85;0.60;;;15.30;66.00;;;;;;4498643;26;20456;-49
2024/04/16 12:28:20;;;;;;;0.85;0.60;;;15.30;65.70;;;;;;4496363;26;20446;-48
2024/04/16 12:31:06;;;;;;;1.20;0.85;;;15.30;66.30;;;;;;4498560;26;20523;-46
2024/04/16 12:33:46;;;;;;;1.95;1.00;;;15.30;66.90;;;;;;4497489;26;20075;-48
2024/04/16 12:36:29;;;;;;;0.90;0.90;;;15.30;67.90;;;;;;4497084;26;20076;-51
2024/04/16 12:39:11;;;;;;;2.88;0.90;;;15.30;67.70;;;;;;4498307;26;20013;-51
2024/04/16 12:41:54;;;;;;;2.47;1.20;;;15.30;67.50;;;;;;4498844;26;20017;-52
2024/04/16 12:44:34;;;;;;;1.75;0.80;;;15.30;67.90;;;;;;4492688;26;20017;-50
2024/04/16 12:47:20;;;;;;;1.70;0.40;;;15.30;67.40;;;;;;4493902;26;20100;-50
2024/04/16 12:50:00;;;;;;;4.13;0.40;;;15.20;67.10;;;;;;4494688;26;20013;-48
2024/04/16 12:52:43;;;;;;;1.65;0.57;;;15.20;67.80;;;;;;4487545;26;20075;-48
2024/04/16 12:55:23;;;;;;;3.30;1.10;;;15.20;67.60;;;;;;4483878;26;20010;-51
2024/04/16 12:58:07;;;;;;;5.97;0.50;;;15.20;67.80;;;;;;4484294;26;20079;-49
2024/04/16 13:00:47;;;;;;;0.60;0.60;;;15.20;67.90;;;;;;4480308;26;20067;-51
2024/04/16 13:03:32;;;;;;;1.55;0.47;;;15.20;67.80;;;;;;4493885;26;20014;-47
2024/04/16 13:06:13;;;;;;;0.57;0.40;;;15.10;67.80;;;;;;4495477;26;20014;-51
2024/04/16 13:08:56;;;;;;;2.15;0.65;;;15.10;68.10;;;;;;4492691;26;20090;-48
2024/04/16 13:11:36;;;;;;;1.95;0.40;;;15.20;68.40;;;;;;4495552;26;20009;-49
2024/04/16 13:14:20;;;;;;;0.80;0.53;;;15.10;68.40;;;;;;4495424;26;20021;-49
2024/04/16 13:17:00;;;;;;;0.80;0.30;;;15.10;68.10;;;;;;4496891;26;20018;-48
2024/04/16 13:19:49;;;;;;;0.28;0.28;;;15.10;68.10;;;;;;4495965;26;20449;-46
2024/04/16 13:22:35;;;;;;;0.77;0.40;;;15.10;67.90;;;;;;4497397;26;20025;-47
2024/04/16 13:25:15;;;;;;;0.30;0.30;;;15.10;68.70;;;;;;4495386;26;21198;-46
2024/04/16 13:27:58;;;;;;;0.73;0.22;;;15.10;67.50;;;;;;4498505;26;20014;-49
2024/04/16 13:30:38;;;;;;;0.25;0.25;;;15.10;68.30;;;;;;4496559;26;20021;-46
2024/04/16 13:33:21;;;;;;;1.75;0.30;;;15.10;67.30;;;;;;4517743;26;20415;-46
2024/04/16 13:36:05;;;;;;;0.68;0.40;;;15.10;67.30;;;;;;4497843;26;20072;-47
2024/04/16 13:38:48;;;;;;;0.30;0.30;;;15.10;67.30;;;;;;4498113;26;20609;-48
2024/04/16 13:41:28;;;;;;;1.10;0.50;;;15.10;67.00;;;;;;4493598;26;20229;-46
2024/04/16 13:44:12;;;;;;;2.10;0.73;;;15.10;66.70;;;;;;4474673;26;20465;-47
2024/04/16 13:46:52;;;;;;;0.80;0.80;;;15.10;66.30;;;;;;4496270;26;20021;-46
2024/04/16 13:49:35;;;;;;;1.67;0.60;;;15.10;66.10;;;;;;4497586;26;20025;-47
2024/04/16 13:52:18;;;;;;;1.55;0.70;;;15.10;66.60;;;;;;4494943;26;20048;-46
2024/04/16 13:55:01;;;;;;;1.50;1.05;;;15.10;66.90;;;;;;4497847;26;20018;-46
2024/04/16 13:57:41;;;;;;;1.75;1.00;;;15.10;67.30;;;;;;4497107;26;20079;-50
2024/04/16 14:00:24;;;;;;;3.25;1.42;;;15.10;67.40;;;;;;4494354;26;20033;-50
2024/04/16 14:03:06;;;;;;;4.10;1.63;;;15.10;67.40;;;;;;4489977;26;20013;-49
2024/04/16 14:05:49;;;;;;;3.92;2.20;;;15.10;67.20;;;;;;4497335;26;20013;-47
2024/04/16 14:08:34;;;;;;;2.38;1.70;;;15.10;67.00;;;;;;4493973;26;20009;-49